createdAt,value
2023-02-08T00:02:10.122Z,39.84
2023-02-08T00:07:14.702Z,39.84
2023-02-08T00:12:19.287Z,38.79
2023-02-08T00:17:23.895Z,38.35
2023-02-08T00:22:28.465Z,38.31
2023-02-08T00:27:35.049Z,38.38
2023-02-08T00:32:39.627Z,37.90
2023-02-08T00:37:44.359Z,37.73
2023-02-08T00:42:48.980Z,37.37
2023-02-08T00:47:54.576Z,38.36
2023-02-08T00:53:01.039Z,38.01
2023-02-08T00:58:05.025Z,37.01
2023-02-08T01:03:09.604Z,37.01
2023-02-08T01:08:14.162Z,39.16
2023-02-08T01:13:18.173Z,37.44
2023-02-08T01:18:22.733Z,37.07
2023-02-08T01:23:27.220Z,36.78
2023-02-08T01:28:31.847Z,37.10
2023-02-08T01:33:36.057Z,36.53
2023-02-08T01:38:40.779Z,36.40
2023-02-08T01:44:04.140Z,36.31
2023-02-08T01:49:26.773Z,36.11
2023-02-08T01:54:39.459Z,36.01
2023-02-08T01:59:55.780Z,35.55
2023-02-08T02:05:03.952Z,35.81
2023-02-08T02:10:28.473Z,35.23
2023-02-08T02:15:33.881Z,34.79
2023-02-08T02:20:55.178Z,35.01
2023-02-08T02:26:36.550Z,34.57
2023-02-08T02:32:04.457Z,34.68
2023-02-08T02:37:23.986Z,35.07
2023-02-08T02:43:06.775Z,34.79
2023-02-08T02:48:17.837Z,34.49
2023-02-08T02:53:27.302Z,33.41
2023-02-08T02:58:34.274Z,34.29
2023-02-08T03:03:38.977Z,34.66
2023-02-08T03:09:15.894Z,33.49
2023-02-08T03:15:00.125Z,34.60
2023-02-08T03:20:07.983Z,33.99
2023-02-08T03:25:35.184Z,34.36
2023-02-08T03:31:09.684Z,32.14
2023-02-08T03:36:52.225Z,33.41
2023-02-08T03:42:03.159Z,32.74
2023-02-08T03:47:20.285Z,33.90
2023-02-08T03:52:28.145Z,33.30
2023-02-08T03:57:42.442Z,33.25
2023-02-08T04:02:56.194Z,33.48
2023-02-08T04:08:01.299Z,33.06
2023-02-08T04:13:06.547Z,33.12
2023-02-08T04:18:11.342Z,33.72
2023-02-08T04:23:16.426Z,33.31
2023-02-08T04:28:21.543Z,33.35
2023-02-08T04:33:26.783Z,32.40
2023-02-08T04:38:32.424Z,32.08
2023-02-08T04:43:37.603Z,32.24
2023-02-08T04:48:42.383Z,32.51
2023-02-08T04:53:47.518Z,32.62
2023-02-08T04:58:52.643Z,32.03
2023-02-08T05:03:58.721Z,32.31
2023-02-08T05:09:04.350Z,31.29
2023-02-08T05:14:10.635Z,31.90
2023-02-08T05:19:15.749Z,32.08
2023-02-08T05:24:20.907Z,32.45
2023-02-08T05:29:26.283Z,32.48
2023-02-08T05:34:31.247Z,30.19
2023-02-08T05:39:36.739Z,30.26
2023-02-08T05:44:41.884Z,31.56
2023-02-08T05:49:48.772Z,30.07
2023-02-08T05:54:55.715Z,30.85
2023-02-08T06:00:00.988Z,31.59
2023-02-08T06:05:09.596Z,31.81
2023-02-08T06:10:15.228Z,32.05
2023-02-08T06:15:20.916Z,31.56
2023-02-08T06:20:26.228Z,31.61
2023-02-08T06:25:31.546Z,31.71
2023-02-08T06:30:36.678Z,31.66
2023-02-08T06:35:41.934Z,30.90
2023-02-08T06:40:49.210Z,31.43
2023-02-08T06:45:54.482Z,31.61
2023-02-08T06:50:59.747Z,31.35
2023-02-08T06:56:04.982Z,31.40
2023-02-08T07:01:14.891Z,31.43
2023-02-08T07:06:22.086Z,31.10
2023-02-08T07:11:28.328Z,31.36
2023-02-08T07:16:32.984Z,31.02
2023-02-08T07:21:37.751Z,31.70
2023-02-08T07:26:42.414Z,29.85
2023-02-08T07:31:47.155Z,30.56
2023-02-08T07:36:51.805Z,31.38
2023-02-08T07:41:57.470Z,31.27
2023-02-08T07:47:06.367Z,31.15
2023-02-08T07:52:11.187Z,31.27
2023-02-08T07:57:22.175Z,31.24
2023-02-08T08:10:25.809Z,30.68
2023-02-08T08:15:31.345Z,29.52
2023-02-08T08:20:39.293Z,31.16
2023-02-08T08:25:44.234Z,30.42
2023-02-08T08:30:49.551Z,30.19
2023-02-08T08:35:54.760Z,30.82
2023-02-08T08:40:59.794Z,30.70
2023-02-08T08:46:06.384Z,30.91
2023-02-08T08:51:11.636Z,30.25
2023-02-08T08:56:16.699Z,30.72
2023-02-08T09:01:21.925Z,30.46
2023-02-08T09:06:27.193Z,30.27
2023-02-08T09:11:34.403Z,30.62
2023-02-08T09:16:39.485Z,30.68
2023-02-08T09:21:44.934Z,30.57
2023-02-08T09:26:51.375Z,30.54
2023-02-08T09:31:56.770Z,30.30
2023-02-08T09:37:01.930Z,30.53
2023-02-08T09:56:07.000Z,30.36
2023-02-08T10:01:34.008Z,30.48
2023-02-08T10:06:39.727Z,30.80
2023-02-08T10:12:09.655Z,30.66
2023-02-08T10:17:51.001Z,30.59
2023-02-08T10:23:12.128Z,30.82
2023-02-08T10:28:41.420Z,30.84
2023-02-08T10:34:13.378Z,30.41
2023-02-08T10:39:35.292Z,30.62
2023-02-08T10:45:27.134Z,30.61
2023-02-08T10:50:41.082Z,30.78
2023-02-08T10:55:48.673Z,30.72
2023-02-08T11:00:54.484Z,30.76
2023-02-08T11:05:59.588Z,31.03
2023-02-08T11:11:12.264Z,31.26
2023-02-08T11:16:29.160Z,30.67
2023-02-08T11:21:36.262Z,30.85
2023-02-08T11:26:42.078Z,31.49
2023-02-08T11:32:15.268Z,31.03
2023-02-08T11:37:29.906Z,31.25
2023-02-08T11:42:48.565Z,31.74
2023-02-08T11:47:54.642Z,31.53
2023-02-08T11:53:06.127Z,31.37
2023-02-08T11:58:26.285Z,31.07
2023-02-08T12:03:38.959Z,31.73
2023-02-08T12:09:03.295Z,31.55
2023-02-08T12:14:32.281Z,31.62
2023-02-08T12:20:05.591Z,32.22
2023-02-08T12:25:32.253Z,32.20
2023-02-08T12:30:47.188Z,32.07
2023-02-08T12:36:14.980Z,32.45
2023-02-08T12:41:20.801Z,33.07
2023-02-08T12:46:48.115Z,32.59
2023-02-08T12:52:20.828Z,33.50
2023-02-08T12:57:31.778Z,33.61
2023-02-08T13:02:47.420Z,33.46
2023-02-08T13:08:19.050Z,33.18
2023-02-08T13:13:30.716Z,33.28
2023-02-08T13:18:39.149Z,33.92
2023-02-08T13:23:52.878Z,33.75
2023-02-08T13:29:02.469Z,33.63
2023-02-08T13:34:20.614Z,33.66
2023-02-08T13:39:41.348Z,32.69
2023-02-08T13:44:56.926Z,33.76
2023-02-08T13:50:08.720Z,33.38
2023-02-08T13:55:37.272Z,32.78
2023-02-08T14:01:02.677Z,32.55
2023-02-08T14:06:30.244Z,32.32
2023-02-08T14:11:46.597Z,32.74
2023-02-08T14:17:11.515Z,32.50
2023-02-08T14:22:16.582Z,32.83
2023-02-08T14:27:39.945Z,32.51
2023-02-08T14:32:47.478Z,33.06
2023-02-08T14:38:24.835Z,32.67
2023-02-08T14:44:03.817Z,32.84
2023-02-08T14:49:18.280Z,33.10
2023-02-08T14:54:51.185Z,33.28
2023-02-08T15:00:00.904Z,33.07
2023-02-08T15:05:10.476Z,33.25
2023-02-08T15:10:18.951Z,32.95
2023-02-08T15:15:48.735Z,32.48
2023-02-08T15:21:21.004Z,32.61
2023-02-08T15:26:26.107Z,32.68
2023-02-08T15:31:37.039Z,32.29
2023-02-08T15:36:43.636Z,32.78
2023-02-08T15:41:52.488Z,32.15
2023-02-08T15:47:02.082Z,32.36
2023-02-08T15:52:09.510Z,32.06
2023-02-08T15:57:35.169Z,32.04
2023-02-08T16:02:40.277Z,32.15
2023-02-08T16:07:48.990Z,31.75
2023-02-08T16:13:00.588Z,31.58
2023-02-08T16:18:06.944Z,31.73
2023-02-08T16:23:29.222Z,31.46
2023-02-08T16:28:35.724Z,31.50
2023-02-08T16:33:41.059Z,31.66
2023-02-08T16:39:24.054Z,31.40
2023-02-08T16:44:35.268Z,31.95
2023-02-08T16:49:42.378Z,31.68
2023-02-08T16:54:47.580Z,31.06
2023-02-08T16:59:53.116Z,32.03
2023-02-08T17:04:57.728Z,31.08
2023-02-08T17:10:02.400Z,31.49
2023-02-08T17:15:07.414Z,31.78
2023-02-08T17:20:34.402Z,31.13
2023-02-08T17:25:40.870Z,31.50
2023-02-08T17:30:46.230Z,31.46
2023-02-08T17:35:54.191Z,31.34
2023-02-08T17:41:01.614Z,31.41
2023-02-08T17:46:21.581Z,31.46
2023-02-08T17:51:29.194Z,31.30
2023-02-08T17:56:37.658Z,31.69
2023-02-08T18:01:42.374Z,31.85
2023-02-08T18:06:47.811Z,31.80
2023-02-08T18:11:52.521Z,32.02
2023-02-08T18:16:59.615Z,32.27
2023-02-08T18:22:06.716Z,32.12
2023-02-08T18:27:11.674Z,32.42
2023-02-08T18:32:17.227Z,31.97
2023-02-08T18:37:22.973Z,32.13
2023-02-08T18:42:27.889Z,32.50
2023-02-08T18:47:32.830Z,32.53
2023-02-08T18:52:38.521Z,32.59
2023-02-08T18:57:45.265Z,32.24
2023-02-08T19:02:50.300Z,32.58
2023-02-08T19:07:55.083Z,32.95
2023-02-08T19:13:00.670Z,33.27
2023-02-08T19:18:06.558Z,32.80
2023-02-08T19:23:11.646Z,32.75
2023-02-08T19:28:16.192Z,32.99
2023-02-08T19:33:21.321Z,32.69
2023-02-08T19:38:26.543Z,32.63
2023-02-08T19:43:33.471Z,32.47
2023-02-08T19:48:38.397Z,32.55
2023-02-08T19:53:43.209Z,32.71
2023-02-08T19:58:50.194Z,32.59
2023-02-08T20:03:56.270Z,33.04
2023-02-08T20:09:07.060Z,32.79
2023-02-08T20:14:15.718Z,32.90
2023-02-08T20:19:20.460Z,32.97
2023-02-08T20:24:25.880Z,33.12
2023-02-08T20:29:31.917Z,32.87
2023-02-08T20:34:38.152Z,32.72
2023-02-08T20:39:44.355Z,32.71
2023-02-08T20:44:51.007Z,32.98
2023-02-08T20:49:56.168Z,32.96
2023-02-08T20:55:01.396Z,32.88
2023-02-08T21:00:07.136Z,32.97
2023-02-08T21:05:11.996Z,33.11
2023-02-08T21:10:17.707Z,32.69
2023-02-08T21:15:22.542Z,32.99
2023-02-08T21:20:27.592Z,32.75
2023-02-08T21:25:33.297Z,33.48
2023-02-08T21:30:38.329Z,33.04
2023-02-08T21:35:43.181Z,33.34
2023-02-08T21:40:48.153Z,32.79
2023-02-08T21:45:53.031Z,33.24
2023-02-08T21:51:20.399Z,32.96
2023-02-08T21:56:26.017Z,32.99
2023-02-08T22:01:31.395Z,33.00
2023-02-08T22:06:36.527Z,33.02
2023-02-08T22:11:43.898Z,33.28
2023-02-08T22:16:49.259Z,33.25
2023-02-08T22:21:54.348Z,33.37
2023-02-08T22:26:59.467Z,32.88
2023-02-08T22:32:04.847Z,32.66
2023-02-08T22:37:11.674Z,33.02
2023-02-08T22:42:16.872Z,32.91
2023-02-08T22:47:23.483Z,32.67
2023-02-08T22:52:29.074Z,32.51
2023-02-08T22:57:37.612Z,33.20
2023-02-08T23:02:43.229Z,32.86
2023-02-08T23:07:48.400Z,33.24
2023-02-08T23:12:53.249Z,33.41
2023-02-08T23:17:59.439Z,33.21
2023-02-08T23:23:04.409Z,33.23
2023-02-08T23:28:12.223Z,33.39
2023-02-08T23:33:17.305Z,33.12
2023-02-08T23:38:22.384Z,33.31
2023-02-08T23:43:28.302Z,32.70
2023-02-08T23:48:33.396Z,32.86
2023-02-08T23:53:39.647Z,32.90
2023-02-08T23:58:46.597Z,33.13
